Time;durP1;ratioP1;P1;durP2;ratioP2;P2;SDS_P1;SDS_P2;PMS_P1;PMS_P2;Temp;Humidity;BMP_temperature;BMP_pressure;BME280_temperature;BME280_humidity;BME280_pressure;Samples;Min_cycle;Max_cycle;Signal;HPM_P1;HPM_P2
2023/05/13 00:00:53;;;;;;;;;;;;;;;12.23;100.00;97909.16;5080356;28;19924;-73
2023/05/13 00:03:20;;;;;;;;;;;;;;;12.23;100.00;97911.84;5080095;28;19988;-73
2023/05/13 00:05:46;;;;;;;;;;;;;;;12.22;100.00;97910.28;5075754;28;20000;-73
2023/05/13 00:08:12;;;;;;;;;;;;;;;12.10;100.00;97908.97;5075225;28;19956;-73
2023/05/13 00:10:39;;;;;;;;;;;;;;;11.95;100.00;97915.13;5077585;28;19934;-73
2023/05/13 00:13:05;;;;;;;;;;;;;;;12.05;100.00;97911.63;5076554;28;19924;-72
2023/05/13 00:15:33;;;;;;;;;;;;;;;11.83;100.00;97918.13;5078111;28;19948;-72
2023/05/13 00:17:59;;;;;;;;;;;;;;;12.00;100.00;97915.16;5079976;28;20000;-72
2023/05/13 00:20:25;;;;;;;;;;;;;;;11.91;100.00;97920.22;5079429;28;19984;-72
2023/05/13 00:22:52;;;;;;;;;;;;;;;11.75;100.00;97923.22;5076402;28;19924;-73
2023/05/13 00:25:18;;;;;;;;;;;;;;;11.80;100.00;97921.34;5076198;28;19992;-72
2023/05/13 00:27:44;;;;;;;;;;;;;;;11.86;100.00;97906.06;5079797;28;19928;-72
2023/05/13 00:30:11;;;;;;;;;;;;;;;11.78;100.00;97918.13;5080023;28;19980;-72
2023/05/13 00:32:39;;;;;;;;;;;;;;;11.67;100.00;97923.72;5077957;28;19973;-72
2023/05/13 00:35:05;;;;;;;;;;;;;;;11.69;100.00;97922.41;5079788;28;20780;-72
2023/05/13 00:37:32;;;;;;;;;;;;;;;11.76;100.00;97916.81;5071910;28;19933;-72
2023/05/13 00:39:59;;;;;;;;;;;;;;;12.01;100.00;97913.28;5079260;28;19932;-72
2023/05/13 00:42:25;;;;;;;;;;;;;;;11.85;100.00;97913.28;5079951;28;19955;-72
2023/05/13 00:44:52;;;;;;;;;;;;;;;12.01;100.00;97916.72;5077215;28;19935;-72
2023/05/13 00:47:18;;;;;;;;;;;;;;;12.25;100.00;97911.59;5076687;28;19925;-71
2023/05/13 00:49:46;;;;;;;;;;;;;;;12.51;100.00;97913.06;5079870;28;19959;-72
2023/05/13 00:52:13;;;;;;;;;;;;;;;12.39;100.00;97913.41;5079191;28;19948;-73
2023/05/13 00:54:39;;;;;;;;;;;;;;;11.99;100.00;97913.53;5077978;28;20004;-71
2023/05/13 00:57:07;;;;;;;;;;;;;;;11.98;100.00;97911.13;5076900;28;19924;-73
2023/05/13 00:59:33;;;;;;;;;;;;;;;12.05;100.00;97911.63;5078386;28;19952;-73
2023/05/13 01:02:03;;;;;;;;;;;;;;;12.02;100.00;97909.50;5080323;28;19924;-72
2023/05/13 01:04:35;;;;;;;;;;;;;;;12.33;100.00;97922.53;5079181;28;19968;-73
2023/05/13 01:07:07;;;;;;;;;;;;;;;12.23;100.00;97922.56;5073561;28;19967;-72
2023/05/13 01:09:38;;;;;;;;;;;;;;;12.34;100.00;97912.63;5078117;28;19989;-72
2023/05/13 01:12:07;;;;;;;;;;;;;;;12.23;100.00;97921.75;5079775;28;19925;-72
2023/05/13 01:14:37;;;;;;;;;;;;;;;12.01;100.00;97923.97;5077122;28;19935;-73
2023/05/13 01:17:07;;;;;;;;;;;;;;;12.27;100.00;97912.91;5076592;28;19925;-73
2023/05/13 01:19:38;;;;;;;;;;;;;;;12.24;100.00;97915.34;5077446;28;19995;-73
2023/05/13 01:22:06;;;;;;;;;;;;;;;12.40;100.00;97919.56;5077977;28;19924;-73
2023/05/13 01:24:32;;;;;;;;;;;;;;;12.21;100.00;97915.88;5077853;28;19939;-73
2023/05/13 01:26:59;;;;;;;;;;;;;;;11.88;100.00;97918.09;5075824;28;19960;-73
2023/05/13 01:29:25;;;;;;;;;;;;;;;12.05;100.00;97920.47;5076194;28;19948;-72
2023/05/13 01:31:53;;;;;;;;;;;;;;;12.03;100.00;97922.63;5077729;28;19924;-72
2023/05/13 01:34:20;;;;;;;;;;;;;;;12.02;100.00;97920.22;5078975;28;20079;-72
2023/05/13 01:36:48;;;;;;;;;;;;;;;12.22;100.00;97925.53;5070865;28;19975;-73
2023/05/13 01:39:16;;;;;;;;;;;;;;;12.11;100.00;97918.56;5075517;28;19928;-72
2023/05/13 01:41:43;;;;;;;;;;;;;;;12.19;100.00;97912.69;5078029;28;19967;-72
2023/05/13 01:44:10;;;;;;;;;;;;;;;12.31;100.00;97910.50;5078780;28;20205;-73
2023/05/13 01:46:37;;;;;;;;;;;;;;;12.41;100.00;97918.47;5076777;28;19996;-73
2023/05/13 01:49:03;;;;;;;;;;;;;;;12.54;100.00;97917.06;5075654;28;20008;-73
2023/05/13 01:51:30;;;;;;;;;;;;;;;12.57;100.00;97911.97;5076608;28;19929;-73
2023/05/13 01:53:57;;;;;;;;;;;;;;;12.68;100.00;97921.59;5078926;28;19991;-71
2023/05/13 01:56:25;;;;;;;;;;;;;;;12.66;100.00;97915.69;5078574;28;19971;-71
2023/05/13 01:58:51;;;;;;;;;;;;;;;12.80;100.00;97916.69;5077099;28;19930;-71
2023/05/13 02:01:17;;;;;;;;;;;;;;;12.78;100.00;97924.19;5079025;28;19968;-71
2023/05/13 02:03:44;;;;;;;;;;;;;;;12.88;100.00;97921.47;5082108;28;20038;-71
2023/05/13 02:06:10;;;;;;;;;;;;;;;12.94;100.00;97923.03;5080813;28;20055;-72
2023/05/13 02:08:36;;;;;;;;;;;;;;;12.99;100.00;97924.88;5078986;28;20000;-72
2023/05/13 02:11:03;;;;;;;;;;;;;;;13.09;100.00;97924.06;5077897;28;19960;-72
2023/05/13 02:13:30;;;;;;;;;;;;;;;13.17;100.00;97915.41;5079690;28;19925;-72
2023/05/13 02:15:57;;;;;;;;;;;;;;;13.17;100.00;97916.22;5082371;28;20253;-72
2023/05/13 02:18:23;;;;;;;;;;;;;;;13.13;100.00;97917.84;5082073;28;19970;-72
2023/05/13 02:20:49;;;;;;;;;;;;;;;13.10;100.00;97922.97;5079057;28;20536;-73
2023/05/13 02:23:16;;;;;;;;;;;;;;;13.00;100.00;97915.75;5078843;28;19925;-72
2023/05/13 02:25:42;;;;;;;;;;;;;;;12.95;100.00;97918.47;5081413;28;19936;-72
2023/05/13 02:28:09;;;;;;;;;;;;;;;12.88;100.00;97918.78;5082126;28;19952;-72
2023/05/13 02:30:37;;;;;;;;;;;;;;;12.86;100.00;97920.13;5080129;28;19928;-72
2023/05/13 02:33:03;;;;;;;;;;;;;;;12.82;100.00;97919.88;5078435;28;19956;-72
2023/05/13 02:35:29;;;;;;;;;;;;;;;12.90;100.00;97919.28;5083880;28;20475;-72
2023/05/13 02:37:56;;;;;;;;;;;;;;;12.99;100.00;97917.66;5073600;28;19948;-72
2023/05/13 02:40:22;;;;;;;;;;;;;;;13.07;100.00;97926.16;5081692;28;19954;-72
2023/05/13 02:42:49;;;;;;;;;;;;;;;13.03;100.00;97915.19;5077185;28;19956;-73
2023/05/13 02:45:15;;;;;;;;;;;;;;;13.05;100.00;97923.78;5078414;28;19992;-73
2023/05/13 02:47:43;;;;;;;;;;;;;;;13.02;100.00;97920.84;5080903;28;19924;-74
2023/05/13 02:50:12;;;;;;;;;;;;;;;12.93;100.00;97926.81;5080002;28;21377;-74
2023/05/13 02:52:39;;;;;;;;;;;;;;;12.98;100.00;97923.28;5079647;28;19983;-73
2023/05/13 02:55:06;;;;;;;;;;;;;;;13.01;100.00;97920.03;5078153;28;19929;-73
2023/05/13 02:57:33;;;;;;;;;;;;;;;12.91;100.00;97917.41;5079474;28;19947;-73
2023/05/13 02:59:59;;;;;;;;;;;;;;;12.74;100.00;97917.78;5080182;28;19931;-73
2023/05/13 03:02:26;;;;;;;;;;;;;;;12.69;100.00;97919.72;5079609;28;20003;-73
2023/05/13 03:04:55;;;;;;;;;;;;;;;12.75;100.00;97926.63;5078027;28;19971;-73
2023/05/13 03:07:21;;;;;;;;;;;;;;;12.85;100.00;97916.66;5069591;28;19970;-72
2023/05/13 03:09:48;;;;;;;;;;;;;;;12.74;100.00;97920.47;5068224;28;19963;-72
2023/05/13 03:12:14;;;;;;;;;;;;;;;12.73;100.00;97924.22;5077787;28;19971;-73
2023/05/13 03:14:42;;;;;;;;;;;;;;;12.91;100.00;97923.59;5079139;28;19948;-73
2023/05/13 03:17:09;;;;;;;;;;;;;;;12.94;100.00;97923.03;5081207;28;19924;-74
2023/05/13 03:19:36;;;;;;;;;;;;;;;12.87;100.00;97925.19;5077844;28;19988;-73
2023/05/13 03:22:03;;;;;;;;;;;;;;;12.88;100.00;97924.13;5077706;28;19952;-73
2023/05/13 03:24:30;;;;;;;;;;;;;;;12.93;100.00;97926.81;5078429;28;19924;-72
2023/05/13 03:26:56;;;;;;;;;;;;;;;12.86;100.00;97925.50;5080752;28;19950;-74
2023/05/13 03:29:23;;;;;;;;;;;;;;;12.95;100.00;97929.19;5079399;28;20297;-72
2023/05/13 03:31:49;;;;;;;;;;;;;;;12.95;100.00;97930.00;5077738;28;20110;-72
2023/05/13 03:34:16;;;;;;;;;;;;;;;12.91;100.00;97928.13;5077711;28;19951;-72
2023/05/13 03:36:42;;;;;;;;;;;;;;;12.91;100.00;97928.94;5078076;28;19928;-73
2023/05/13 03:39:10;;;;;;;;;;;;;;;13.04;100.00;97938.25;5078220;28;19967;-73
2023/05/13 03:41:36;;;;;;;;;;;;;;;13.10;100.00;97931.81;5079807;28;19929;-73
2023/05/13 03:44:03;;;;;;;;;;;;;;;13.20;100.00;97939.78;5079935;28;20304;-73
2023/05/13 03:46:29;;;;;;;;;;;;;;;13.29;100.00;97934.63;5080058;28;20551;-73
2023/05/13 03:48:56;;;;;;;;;;;;;;;13.34;100.00;97934.56;5076770;28;19928;-72
2023/05/13 03:51:22;;;;;;;;;;;;;;;13.38;100.00;97939.13;5075659;28;19964;-73
2023/05/13 03:53:48;;;;;;;;;;;;;;;13.40;100.00;97942.31;5079100;28;19952;-73
2023/05/13 03:56:16;;;;;;;;;;;;;;;13.44;100.00;97934.50;5078959;28;19996;-72
2023/05/13 03:58:43;;;;;;;;;;;;;;;13.46;100.00;97935.81;5076987;28;19928;-73
2023/05/13 04:01:09;;;;;;;;;;;;;;;13.44;100.00;97931.81;5075377;28;19924;-72
2023/05/13 04:03:35;;;;;;;;;;;;;;;13.29;100.00;97940.00;5077239;28;20496;-72
2023/05/13 04:06:02;;;;;;;;;;;;;;;13.28;100.00;97939.19;5074498;28;19925;-72
2023/05/13 04:08:28;;;;;;;;;;;;;;;13.21;100.00;97941.41;5076642;28;19971;-72
2023/05/13 04:10:55;;;;;;;;;;;;;;;13.13;100.00;97950.00;5076347;28;19963;-72
2023/05/13 04:13:23;;;;;;;;;;;;;;;12.98;100.00;97950.09;5075121;28;19937;-72
2023/05/13 04:15:49;;;;;;;;;;;;;;;13.00;100.00;97946.03;5075630;28;19995;-71
2023/05/13 04:18:16;;;;;;;;;;;;;;;13.14;100.00;97942.78;5076582;28;19927;-72
2023/05/13 04:20:42;;;;;;;;;;;;;;;13.15;100.00;97955.91;5078827;28;19988;-72
2023/05/13 04:23:09;;;;;;;;;;;;;;;13.14;100.00;97951.63;5079561;28;20374;-72
2023/05/13 04:25:36;;;;;;;;;;;;;;;13.10;100.00;97950.56;5078289;28;19932;-71
2023/05/13 04:28:02;;;;;;;;;;;;;;;13.08;100.00;97951.91;5076878;28;19925;-72
2023/05/13 04:30:30;;;;;;;;;;;;;;;13.07;100.00;97955.66;5077426;28;19935;-72
2023/05/13 04:32:56;;;;;;;;;;;;;;;13.04;100.00;97961.56;5080087;28;19924;-72
2023/05/13 04:35:22;;;;;;;;;;;;;;;13.07;100.00;97952.97;5078705;28;20329;-72
2023/05/13 04:37:49;;;;;;;;;;;;;;;12.99;100.00;97959.75;5070798;28;19963;-73
2023/05/13 04:40:15;;;;;;;;;;;;;;;12.95;100.00;97966.72;5079674;28;20043;-72
2023/05/13 04:42:42;;;;;;;;;;;;;;;12.87;100.00;97964.63;5076620;28;19964;-72
2023/05/13 04:45:08;;;;;;;;;;;;;;;12.61;100.00;97966.63;5075932;28;19964;-72
2023/05/13 04:47:36;;;;;;;;;;;;;;;12.62;100.00;97967.44;5077040;28;19932;-73
2023/05/13 04:50:03;;;;;;;;;;;;;;;12.60;100.00;97961.53;5078785;28;19932;-72
2023/05/13 04:52:29;;;;;;;;;;;;;;;12.74;100.00;97971.38;5079025;28;19951;-73
2023/05/13 04:54:56;;;;;;;;;;;;;;;12.81;100.00;97961.16;5076392;28;20396;-72
2023/05/13 04:57:22;;;;;;;;;;;;;;;12.84;100.00;97971.31;5076542;28;19921;-73
2023/05/13 04:59:48;;;;;;;;;;;;;;;12.85;100.00;97970.25;5076484;28;19956;-73
2023/05/13 05:02:15;;;;;;;;;;;;;;;12.83;100.00;97974.28;5076552;28;19956;-73
2023/05/13 05:04:42;;;;;;;;;;;;;;;12.96;100.00;97969.16;5079223;28;19925;-73
2023/05/13 05:07:09;;;;;;;;;;;;;;;12.86;100.00;97966.50;5068366;28;19925;-73
2023/05/13 05:09:35;;;;;;;;;;;;;;;12.92;100.00;97969.97;5077911;28;20322;-72
2023/05/13 05:12:01;;;;;;;;;;;;;;;12.92;100.00;97978.81;5079633;28;19924;-73
2023/05/13 05:14:28;;;;;;;;;;;;;;;12.79;100.00;97973.22;5079166;28;19992;-73
2023/05/13 05:16:54;;;;;;;;;;;;;;;12.83;100.00;97983.13;5075230;28;19976;-74
2023/05/13 05:19:22;;;;;;;;;;;;;;;12.77;100.00;97978.88;5076152;28;19956;-72
2023/05/13 05:21:50;;;;;;;;;;;;;;;12.85;100.00;97983.66;5076240;28;19975;-72
2023/05/13 05:24:17;;;;;;;;;;;;;;;12.93;100.00;97974.25;5076064;28;19932;-72
2023/05/13 05:26:43;;;;;;;;;;;;;;;12.98;100.00;97984.94;5077869;28;19928;-72
2023/05/13 05:29:09;;;;;;;;;;;;;;;12.96;100.00;97985.22;5078630;28;19988;-72
2023/05/13 05:31:36;;;;;;;;;;;;;;;12.80;100.00;97988.25;5077981;28;20015;-72
2023/05/13 05:34:02;;;;;;;;;;;;;;;12.93;100.00;97987.66;5076475;28;19925;-72
2023/05/13 05:36:28;;;;;;;;;;;;;;;12.89;100.00;97990.06;5080063;28;19928;-72
2023/05/13 05:38:56;;;;;;;;;;;;;;;12.99;100.00;97987.34;5080118;28;19928;-72
2023/05/13 05:41:23;;;;;;;;;;;;;;;13.03;100.00;97989.47;5080295;28;19981;-72
2023/05/13 05:43:49;;;;;;;;;;;;;;;13.03;100.00;97997.53;5083917;28;19946;-72
2023/05/13 05:46:15;;;;;;;;;;;;;;;12.94;100.00;97981.19;5083501;28;19992;-72
2023/05/13 05:48:42;;;;;;;;;;;;;;;12.96;100.00;97985.22;5080939;28;19925;-72
2023/05/13 05:51:08;;;;;;;;;;;;;;;13.04;100.00;97991.88;5080066;28;19968;-72
2023/05/13 05:53:36;;;;;;;;;;;;;;;12.87;100.00;97980.72;5081343;28;19925;-72
2023/05/13 05:56:04;;;;;;;;;;;;;;;12.85;100.00;97991.69;5083278;28;19924;-72
2023/05/13 05:58:30;;;;;;;;;;;;;;;12.84;100.00;97991.97;5080910;28;20003;-72
2023/05/13 06:00:57;;;;;;;;;;;;;;;12.92;100.00;97989.53;5079888;28;19960;-72
2023/05/13 06:03:23;;;;;;;;;;;;;;;12.93;100.00;97990.34;5079859;28;19924;-72
2023/05/13 06:05:50;;;;;;;;;;;;;;;12.95;100.00;97988.97;5079457;28;20546;-73
2023/05/13 06:08:16;;;;;;;;;;;;;;;12.97;100.00;97986.81;5078893;28;19924;-73
2023/05/13 06:10:43;;;;;;;;;;;;;;;13.07;100.00;97991.31;5080277;28;19929;-72
2023/05/13 06:13:11;;;;;;;;;;;;;;;12.94;100.00;97986.56;5078370;28;19921;-72
2023/05/13 06:15:38;;;;;;;;;;;;;;;12.88;100.00;97998.38;5081549;28;19925;-72
2023/05/13 06:18:04;;;;;;;;;;;;;;;12.86;100.00;97990.63;5082451;28;19924;-72
2023/05/13 06:20:31;;;;;;;;;;;;;;;12.86;100.00;97990.63;5079623;28;19924;-72
2023/05/13 06:22:57;;;;;;;;;;;;;;;12.90;100.00;97991.66;5077590;28;19985;-72
2023/05/13 06:25:23;;;;;;;;;;;;;;;12.86;100.00;97996.00;5078744;28;19996;-72
2023/05/13 06:27:50;;;;;;;;;;;;;;;12.78;100.00;97993.88;5082153;28;20392;-72
2023/05/13 06:30:18;;;;;;;;;;;;;;;12.84;100.00;97995.44;5081985;28;19924;-73
2023/05/13 06:32:44;;;;;;;;;;;;;;;12.94;100.00;97994.59;5078792;28;19983;-72
2023/05/13 06:35:11;;;;;;;;;;;;;;;12.88;100.00;97993.81;5082132;28;19951;-72
2023/05/13 06:37:37;;;;;;;;;;;;;;;12.88;100.00;98003.75;5073425;28;19924;-72
2023/05/13 06:40:04;;;;;;;;;;;;;;;12.86;100.00;98004.03;5081880;28;19924;-72
2023/05/13 06:42:30;;;;;;;;;;;;;;;12.80;100.00;97999.78;5079202;28;19960;-72
2023/05/13 06:44:57;;;;;;;;;;;;;;;12.90;100.00;98001.59;5077949;28;19967;-73
2023/05/13 06:47:24;;;;;;;;;;;;;;;12.97;100.00;98000.22;5078312;28;19924;-72
2023/05/13 06:49:51;;;;;;;;;;;;;;;13.06;100.00;98005.78;5081592;28;20726;-72
2023/05/13 06:52:17;;;;;;;;;;;;;;;13.11;100.00;98005.00;5081468;28;19925;-72
2023/05/13 06:54:43;;;;;;;;;;;;;;;13.16;100.00;98007.66;5078642;28;19974;-73
2023/05/13 06:57:11;;;;;;;;;;;;;;;13.06;100.00;98005.00;5078415;28;19921;-73
2023/05/13 06:59:37;;;;;;;;;;;;;;;13.12;100.00;98009.31;5078705;28;19984;-73
2023/05/13 07:02:03;;;;;;;;;;;;;;;13.13;100.00;98008.19;5081507;28;19931;-73
2023/05/13 07:04:31;;;;;;;;;;;;;;;13.11;100.00;98013.06;5080075;28;19927;-72
2023/05/13 07:06:57;;;;;;;;;;;;;;;13.11;100.00;98002.31;5069414;28;19937;-73
2023/05/13 07:09:24;;;;;;;;;;;;;;;13.14;100.00;98010.63;5080110;28;19925;-73
2023/05/13 07:11:51;;;;;;;;;;;;;;;13.18;100.00;98009.00;5081460;28;20000;-73
2023/05/13 07:14:17;;;;;;;;;;;;;;;13.19;100.00;98002.53;5079985;28;19924;-73
2023/05/13 07:16:43;;;;;;;;;;;;;;;13.31;100.00;98019.09;5078261;28;19929;-73
2023/05/13 07:19:10;;;;;;;;;;;;;;;13.32;100.00;98009.97;5077771;28;19925;-72
2023/05/13 07:21:37;;;;;;;;;;;;;;;13.43;100.00;98010.72;5079550;28;19927;-72
2023/05/13 07:24:04;;;;;;;;;;;;;;;13.44;100.00;98012.31;5081303;28;19931;-72
2023/05/13 07:26:31;;;;;;;;;;;;;;;13.27;100.00;98017.25;5079725;28;20083;-72
2023/05/13 07:28:58;;;;;;;;;;;;;;;13.39;100.00;98013.16;5077552;28;19924;-72
2023/05/13 07:31:25;;;;;;;;;;;;;;;13.32;100.00;98006.50;5077878;28;19935;-72
2023/05/13 07:33:51;;;;;;;;;;;;;;;13.47;100.00;98006.38;5081070;28;19924;-72
2023/05/13 07:36:17;;;;;;;;;;;;;;;13.46;100.00;98008.25;5073637;28;19931;-72
2023/05/13 07:38:45;;;;;;;;;;;;;;;13.54;100.00;98012.25;5077289;28;19951;-73
2023/05/13 07:41:11;;;;;;;;;;;;;;;13.68;100.00;98018.56;5077403;28;19952;-72
2023/05/13 07:43:39;;;;;;;;;;;;;;;13.75;100.00;98016.38;5077916;28;19952;-72
2023/05/13 07:46:05;;;;;;;;;;;;;;;13.71;100.00;98012.63;5080635;28;19924;-73
2023/05/13 07:48:32;;;;;;;;;;;;;;;13.81;100.00;98022.50;5079221;28;19924;-72
2023/05/13 07:50:58;;;;;;;;;;;;;;;13.88;100.00;98021.09;5075934;28;20258;-72
2023/05/13 07:53:26;;;;;;;;;;;;;;;13.86;100.00;98012.53;5077409;28;19924;-72
2023/05/13 07:55:54;;;;;;;;;;;;;;;13.84;100.00;98013.88;5079821;28;20007;-72
2023/05/13 07:58:20;;;;;;;;;;;;;;;13.61;100.00;98010.06;5079410;28;19924;-72
2023/05/13 08:00:48;;;;;;;;;;;;;;;13.66;100.00;98017.25;5077533;28;19925;-72
2023/05/13 08:03:14;;;;;;;;;;;;;;;13.73;100.00;98025.78;5077397;28;19932;-73
2023/05/13 08:05:41;;;;;;;;;;;;;;;13.75;100.00;98016.38;5075802;28;19952;-73
2023/05/13 08:08:07;;;;;;;;;;;;;;;13.69;100.00;98022.88;5075081;28;19935;-71
2023/05/13 08:10:33;;;;;;;;;;;;;;;13.78;100.00;98017.69;5079089;28;19924;-70
2023/05/13 08:13:01;;;;;;;;;;;;;;;13.89;100.00;98011.97;5076853;28;20350;-70
2023/05/13 08:15:27;;;;;;;;;;;;;;;13.69;100.00;98025.53;5077957;28;19995;-73
2023/05/13 08:17:54;;;;;;;;;;;;;;;13.81;100.00;98026.00;5081002;28;19951;-73
2023/05/13 08:20:21;;;;;;;;;;;;;;;13.88;100.00;98017.63;5080778;28;19924;-72
2023/05/13 08:22:48;;;;;;;;;;;;;;;13.89;100.00;98019.22;5076895;28;20016;-72
2023/05/13 08:25:15;;;;;;;;;;;;;;;13.93;100.00;98021.06;5076803;28;19992;-71
2023/05/13 08:27:41;;;;;;;;;;;;;;;13.68;100.00;98020.47;5078541;28;19943;-72
2023/05/13 08:30:09;;;;;;;;;;;;;;;13.83;100.00;98015.75;5080833;28;19999;-72
2023/05/13 08:32:36;;;;;;;;;;;;;;;13.98;100.00;98025.59;5079740;28;19946;-72
2023/05/13 08:35:02;;;;;;;;;;;;;;;13.86;100.00;98025.16;5078321;28;19940;-72
2023/05/13 08:37:28;;;;;;;;;;;;;;;14.00;100.00;98026.09;5070099;28;19948;-72
2023/05/13 08:39:55;;;;;;;;;;;;;;;14.02;100.00;98022.03;5079171;28;19924;-72
2023/05/13 08:42:22;;;;;;;;;;;;;;;14.08;100.00;98023.59;5079248;28;19947;-72
2023/05/13 08:44:49;;;;;;;;;;;;;;;14.22;100.00;98017.56;5075712;28;19964;-72
2023/05/13 08:47:25;;;;;;;;;;;;;;;14.23;100.00;98029.94;5075526;28;19920;-72
2023/05/13 08:49:51;;;;;;;;;;;;;;;14.07;100.00;98021.22;5072260;28;19942;-73
2023/05/13 08:52:18;;;;;;;;;;;;;;;14.01;100.00;98020.47;5079281;28;19924;-72
2023/05/13 08:54:45;;;;;;;;;;;;;;;13.74;100.00;98020.13;5077276;28;20004;-72
2023/05/13 08:57:11;;;;;;;;;;;;;;;13.87;100.00;98022.19;5076448;28;19988;-72
2023/05/13 08:59:38;;;;;;;;;;;;;;;14.08;100.00;98030.84;5078653;28;19935;-72
2023/05/13 09:02:04;;;;;;;;;;;;;;;14.06;100.00;98030.34;5079886;28;20023;-73
2023/05/13 09:04:33;;;;;;;;;;;;;;;13.97;100.00;98027.47;5077933;28;19984;-73
2023/05/13 09:06:59;;;;;;;;;;;;;;;14.16;100.00;98029.44;5068351;28;19925;-72
2023/05/13 09:09:26;;;;;;;;;;;;;;;14.33;100.00;98029.84;5082803;28;19921;-73
2023/05/13 09:11:52;;;;;;;;;;;;;;;14.30;100.00;98033.06;5084406;28;20019;-74
2023/05/13 09:14:19;;;;;;;;;;;;;;;14.11;100.00;98032.19;5082891;28;19932;-73
2023/05/13 09:16:46;;;;;;;;;;;;;;;14.20;100.00;98030.50;5081197;28;19931;-73
2023/05/13 09:19:13;;;;;;;;;;;;;;;14.23;100.00;98025.38;5080591;28;19992;-73
2023/05/13 09:21:43;;;;;;;;;;;;;;;14.25;100.00;98033.13;5082633;28;19925;-73
2023/05/13 09:24:10;;;;;;;;;;;;;;;14.85;100.00;98029.84;5083872;28;20027;-73
2023/05/13 09:26:37;;;;;;;;;;;;;;;15.11;100.00;98025.72;5082098;28;19955;-73
2023/05/13 09:29:22;;;;;;;;;;;;;;;15.59;100.00;98026.44;5080440;28;19971;-74
2023/05/13 09:31:50;;;;;;;;;;;;;;;15.98;100.00;98018.00;5079223;28;19925;-74
2023/05/13 09:34:23;;;;;;;;;;;;;;;16.14;100.00;98024.72;5083149;28;19925;-74
2023/05/13 09:36:56;;;;;;;;;;;;;;;16.31;100.00;98032.22;5082530;28;19935;-74
2023/05/13 09:39:22;;;;;;;;;;;;;;;15.84;100.00;98022.53;5083462;28;19936;-74
2023/05/13 09:41:48;;;;;;;;;;;;;;;15.59;100.00;98031.00;5079487;28;19947;-72
2023/05/13 09:44:15;;;;;;;;;;;;;;;16.01;100.00;98022.78;5079636;28;20220;-73
2023/05/13 09:46:42;;;;;;;;;;;;;;;16.27;100.00;98025.06;5080765;28;19927;-73
2023/05/13 09:49:09;;;;;;;;;;;;;;;15.84;100.00;98017.16;5081707;28;19920;-74
2023/05/13 09:51:35;;;;;;;;;;;;;;;15.17;100.00;98029.13;5080958;28;19921;-74
2023/05/13 09:54:07;;;;;;;;;;;;;;;14.95;100.00;98029.69;5079202;28;19924;-74
2023/05/13 09:56:34;;;;;;;;;;;;;;;14.89;100.00;98030.84;5080747;28;19952;-74
2023/05/13 09:59:01;;;;;;;;;;;;;;;14.63;100.00;98028.75;5082698;28;19924;-73
2023/05/13 10:01:28;;;;;;;;;;;;;;;14.65;100.00;98024.69;5082243;28;19935;-73
2023/05/13 10:03:55;;;;;;;;;;;;;;;14.63;100.00;98026.88;5077869;28;19971;-72
2023/05/13 10:06:22;;;;;;;;;;;;;;;14.56;100.00;98029.06;5073778;28;19928;-73
2023/05/13 10:08:50;;;;;;;;;;;;;;;14.46;100.00;98032.66;5079276;28;19932;-73
2023/05/13 10:11:18;;;;;;;;;;;;;;;14.43;100.00;98044.00;5079104;28;19988;-73
2023/05/13 10:13:47;;;;;;;;;;;;;;;14.36;100.00;98040.06;5081996;28;19925;-73
2023/05/13 10:16:14;;;;;;;;;;;;;;;14.26;100.00;98037.44;5081253;28;19970;-74
2023/05/13 10:18:41;;;;;;;;;;;;;;;14.32;100.00;98034.41;5079497;28;19929;-73
2023/05/13 10:21:07;;;;;;;;;;;;;;;14.48;100.00;98033.19;5078196;28;19932;-73
2023/05/13 10:23:34;;;;;;;;;;;;;;;14.46;100.00;98029.19;5080240;28;19925;-73
2023/05/13 10:26:01;;;;;;;;;;;;;;;14.40;100.00;98035.69;5082219;28;19999;-73
2023/05/13 10:28:29;;;;;;;;;;;;;;;14.36;100.00;98040.81;5081419;28;19986;-72
2023/05/13 10:30:56;;;;;;;;;;;;;;;14.34;100.00;98034.16;5078370;28;19943;-73
2023/05/13 10:33:23;;;;;;;;;;;;;;;14.29;100.00;98039.53;5078624;28;19925;-73
2023/05/13 10:35:53;;;;;;;;;;;;;;;14.30;100.00;98036.56;5075745;28;19962;-74
2023/05/13 10:38:27;;;;;;;;;;;;;;;14.23;100.00;98038.81;5078478;28;19934;-73
2023/05/13 10:41:08;;;;;;;;;;;;;;;14.24;100.00;98032.31;5074403;28;19924;-73
2023/05/13 10:43:36;;;;;;;;;;;;;;;14.24;100.00;98036.88;5078809;28;19931;-72
2023/05/13 10:46:04;;;;;;;;;;;;;;;14.28;100.00;98035.25;5078263;28;19925;-72
2023/05/13 10:48:38;;;;;;;;;;;;;;;14.33;100.00;98033.34;5077647;28;19932;-73
2023/05/13 10:51:06;;;;;;;;;;;;;;;14.41;100.00;98024.69;5081716;28;19991;-74
2023/05/13 10:53:36;;;;;;;;;;;;;;;14.42;100.00;98023.56;5080502;28;19963;-74
2023/05/13 10:56:06;;;;;;;;;;;;;;;14.66;100.00;98020.91;5078012;28;19925;-73
2023/05/13 10:58:35;;;;;;;;;;;;;;;14.65;100.00;98027.38;5079240;28;19925;-73
2023/05/13 11:01:19;;;;;;;;;;;;;;;14.82;100.00;98027.72;5080221;28;20509;-73
2023/05/13 11:03:55;;;;;;;;;;;;;;;15.02;100.00;98030.16;5077109;28;19948;-73
2023/05/13 11:06:23;;;;;;;;;;;;;;;14.95;100.00;98026.19;5071253;28;20027;-73
2023/05/13 11:08:50;;;;;;;;;;;;;;;15.00;100.00;98012.69;5072075;28;19925;-73
2023/05/13 11:11:17;;;;;;;;;;;;;;;14.91;100.00;98020.63;5079707;28;19930;-73
2023/05/13 11:13:43;;;;;;;;;;;;;;;14.91;100.00;98027.88;5077551;28;19928;-73
2023/05/13 11:16:12;;;;;;;;;;;;;;;15.00;100.00;98010.00;5078325;28;19979;-73
2023/05/13 11:18:40;;;;;;;;;;;;;;;15.16;100.00;98011.41;5079856;28;19925;-73
2023/05/13 11:21:07;;;;;;;;;;;;;;;15.26;100.00;98015.84;5081898;28;19951;-73
2023/05/13 11:23:49;;;;;;;;;;;;;;;15.17;100.00;98006.81;5079222;28;19927;-73
2023/05/13 11:26:16;;;;;;;;;;;;;;;15.35;100.00;98019.50;5078154;28;20429;-73
2023/05/13 11:28:55;;;;;;;;;;;;;;;15.36;100.00;98016.50;5080708;28;19968;-73
2023/05/13 11:31:22;;;;;;;;;;;;;;;15.39;100.00;98015.91;5080535;28;19932;-73
2023/05/13 11:34:09;;;;;;;;;;;;;;;15.51;100.00;98002.84;5078212;28;19925;-74
2023/05/13 11:36:36;;;;;;;;;;;;;;;15.69;100.00;98003.13;5072700;28;20001;-73
2023/05/13 11:39:11;;;;;;;;;;;;;;;15.83;100.00;98004.78;5077718;28;19925;-73
2023/05/13 11:41:37;;;;;;;;;;;;;;;15.64;100.00;98001.31;5079722;28;19925;-73
2023/05/13 11:44:05;;;;;;;;;;;;;;;15.61;100.00;98005.41;5080104;28;19963;-73
2023/05/13 11:46:31;;;;;;;;;;;;;;;15.81;100.00;98001.59;5078913;28;19930;-73
2023/05/13 11:48:58;;;;;;;;;;;;;;;15.50;100.00;98011.22;5077560;28;19925;-73
2023/05/13 11:51:26;;;;;;;;;;;;;;;15.74;100.00;98003.03;5076482;28;19984;-73
2023/05/13 11:53:59;;;;;;;;;;;;;;;15.89;100.00;98009.00;5081075;28;19924;-74
2023/05/13 11:56:25;;;;;;;;;;;;;;;15.70;100.00;98004.72;5079560;28;19963;-73
2023/05/13 11:58:53;;;;;;;;;;;;;;;15.86;100.00;98001.50;5077467;28;19924;-73
2023/05/13 12:01:19;;;;;;;;;;;;;;;15.80;100.00;98005.38;5077641;28;19921;-73
2023/05/13 12:03:46;;;;;;;;;;;;;;;15.64;100.00;98006.69;5079348;28;19924;-73
2023/05/13 12:06:12;;;;;;;;;;;;;;;15.42;100.00;98014.53;5072722;28;19960;-72
2023/05/13 12:08:44;;;;;;;;;;;;;;;15.48;100.00;98013.41;5077265;28;19946;-73
2023/05/13 12:11:12;;;;;;;;;;;;;;;15.49;100.00;98015.81;5077300;28;19932;-73
2023/05/13 12:13:39;;;;;;;;;;;;;;;15.54;100.00;98009.53;5079298;28;19925;-73
2023/05/13 12:16:05;;;;;;;;;;;;;;;15.51;100.00;98012.81;5080660;28;19924;-73
2023/05/13 12:18:32;;;;;;;;;;;;;;;15.30;100.00;98012.28;5079411;28;19936;-74
2023/05/13 12:20:59;;;;;;;;;;;;;;;15.37;100.00;98014.63;5077163;28;20320;-73
2023/05/13 12:23:25;;;;;;;;;;;;;;;15.43;100.00;98008.06;5076272;28;19971;-73
2023/05/13 12:25:53;;;;;;;;;;;;;;;15.27;100.00;98007.50;5080495;28;19928;-73
2023/05/13 12:28:20;;;;;;;;;;;;;;;15.16;100.00;98011.41;5080665;28;19955;-73
2023/05/13 12:30:52;;;;;;;;;;;;;;;15.21;100.00;98021.28;5076227;28;19924;-73
2023/05/13 12:33:19;;;;;;;;;;;;;;;15.23;100.00;98016.41;5077095;28;19935;-73
2023/05/13 12:35:47;;;;;;;;;;;;;;;15.19;100.00;98020.78;5076970;28;19945;-73